Time;durP1;ratioP1;P1;durP2;ratioP2;P2;SDS_P1;SDS_P2;PMS_P1;PMS_P2;Temp;Humidity;BMP_temperature;BMP_pressure;BME280_temperature;BME280_humidity;BME280_pressure;Samples;Min_cycle;Max_cycle;Signal;HPM_P1;HPM_P2
2021/04/04 07:00:32;;;;;;;11.02;4.72;;;;;;;8.22;46.95;99448.78;5958015;23;20414;-71
2021/04/04 07:03:07;;;;;;;8.77;4.10;;;;;;;9.77;45.29;99452.16;4919116;29;20436;-71
2021/04/04 07:05:39;;;;;;;8.40;4.38;;;;;;;9.78;44.05;99449.53;4919605;29;20028;-72
2021/04/04 07:08:11;;;;;;;10.18;4.03;;;;;;;11.25;41.00;99447.69;4917979;29;20028;-73
2021/04/04 07:10:41;;;;;;;7.65;4.63;;;;;;;12.13;38.94;99439.75;4919152;29;20021;-72
2021/04/04 07:13:18;;;;;;;7.97;3.85;;;;;;;10.65;41.61;99450.81;4939988;23;21129;-70
2021/04/04 07:16:18;;;;;;;10.43;4.75;;;;;;;11.41;41.29;99444.06;4925950;29;20043;-70
2021/04/04 07:19:22;;;;;;;6.57;4.20;;;;;;;11.01;41.84;99449.63;4900487;29;20062;-70
2021/04/04 07:22:05;;;;;;;9.25;3.90;;;;;;;9.90;44.65;99458.97;4898984;29;20081;-70
2021/04/04 07:24:30;;;;;;;14.48;4.72;;;;;;;10.09;43.94;99456.31;4900100;29;20035;-70
2021/04/04 07:27:35;;;;;;;6.38;4.38;;;;;;;11.16;41.43;99450.38;4900147;29;20020;-70
2021/04/04 07:30:29;;;;;;;7.80;4.55;;;;;;;11.74;40.51;99448.00;4900004;29;20033;-69
2021/04/04 07:32:57;;;;;;;8.77;4.03;;;;;;;13.95;35.67;99432.28;4899705;29;20588;-70
2021/04/04 07:35:33;;;;;;;7.32;3.70;;;;;;;14.94;33.95;99437.00;4900059;29;20036;-69
2021/04/04 07:38:07;;;;;;;9.68;4.82;;;;;;;15.12;34.40;99439.13;4899905;29;20095;-69
2021/04/04 07:40:48;;;;;;;9.40;4.20;;;;;;;15.72;32.23;99439.31;4899992;29;20071;-69
2021/04/04 07:43:21;;;;;;;8.02;3.78;;;;;;;15.02;32.43;99450.69;4899504;29;20092;-70
2021/04/04 07:46:04;;;;;;;12.90;3.85;;;;;;;15.24;33.50;99448.41;4924183;29;20511;-71
2021/04/04 07:49:07;;;;;;;8.60;4.15;;;;;;;16.04;30.53;99441.84;4936938;29;20032;-70
2021/04/04 07:51:37;;;;;;;9.60;4.57;;;;;;;17.12;29.78;99442.81;4937564;29;20047;-70
2021/04/04 07:54:26;;;;;;;5.20;3.47;;;;;;;16.76;30.04;99444.00;4937526;29;20035;-70
2021/04/04 07:57:17;;;;;;;7.60;3.97;;;;;;;18.42;27.45;99442.44;4937390;29;20024;-70
2021/04/04 07:59:47;;;;;;;8.75;4.07;;;;;;;19.65;26.70;99438.25;4937459;29;20068;-70
2021/04/04 08:02:40;;;;;;;9.88;4.28;;;;;;;19.53;26.18;99444.84;4937259;29;20034;-70
2021/04/04 08:05:09;;;;;;;7.30;4.38;;;;;;;18.47;27.61;99446.63;4937463;29;20070;-69
2021/04/04 08:08:01;;;;;;;8.43;4.20;;;;;;;18.75;27.21;99441.13;4937202;29;20477;-70
2021/04/04 08:10:35;;;;;;;7.20;4.20;;;;;;;18.68;27.24;99439.69;4936519;29;20042;-69
2021/04/04 08:13:19;;;;;;;11.93;4.30;;;;;;;17.95;28.36;99447.75;4936464;29;20028;-69
2021/04/04 08:15:47;;;;;;;8.25;4.35;;;;;;;18.31;27.77;99442.00;4928404;29;20098;-70
2021/04/04 08:18:12;;;;;;;8.18;4.20;;;;;;;17.17;30.09;99448.75;4934101;29;20031;-70
2021/04/04 08:20:54;;;;;;;9.60;4.32;;;;;;;16.99;29.84;99443.28;4936993;29;20080;-70
2021/04/04 08:23:27;;;;;;;10.27;4.50;;;;;;;19.94;25.65;99429.03;4936551;29;20027;-70
2021/04/04 08:26:03;;;;;;;8.82;3.83;;;;;;;19.83;25.33;99426.06;4936972;29;20023;-70
2021/04/04 08:28:39;;;;;;;10.55;4.45;;;;;;;18.91;27.10;99424.75;4936899;29;20043;-72
2021/04/04 08:31:12;;;;;;;6.32;3.90;;;;;;;19.89;25.48;99420.50;4936859;29;20036;-71
2021/04/04 08:33:45;;;;;;;7.75;4.18;;;;;;;18.93;25.78;99433.41;4936688;29;20028;-71
2021/04/04 08:36:16;;;;;;;25.50;12.88;;;;;;;18.14;27.62;99433.03;4936795;29;20036;-72
2021/04/04 08:38:46;;;;;;;11.75;4.47;;;;;;;20.70;24.41;99419.31;4936683;29;20035;-72
2021/04/04 08:41:13;;;;;;;;;;;;;;;19.36;25.53;99426.34;4937005;29;20422;-72
2021/04/04 08:43:40;;;;;;;;;;;;;;;20.28;25.47;99416.00;4937021;29;19910;-72
2021/04/04 08:46:22;;;;;;;;;;;;;;;20.77;24.10;99420.72;4925792;29;20380;-72
2021/04/04 08:48:47;;;;;;;;;;;;;;;19.55;25.92;99421.13;4898973;29;19959;-71
2021/04/04 08:51:13;;;;;;;;;;;;;;;20.57;25.08;99426.97;4898790;29;19919;-71
2021/04/04 08:53:41;;;;;;;;;;;;;;;21.05;24.03;99425.47;4898946;29;19918;-71
2021/04/04 08:56:07;;;;;;;;;;;;;;;21.19;23.73;99427.41;4898891;29;20391;-77
2021/04/04 08:58:39;;;;;;;;;;;;;;;20.39;25.17;99420.75;4898892;29;19916;-71
2021/04/04 09:01:09;;;;;;;;;;;;;;;18.38;27.89;99430.38;4899094;29;19912;-70
2021/04/04 09:03:37;;;;;;;;;;;;;;;20.01;25.43;99419.91;4898566;29;20002;-75
2021/04/04 09:06:04;;;;;;;;;;;;;;;19.01;26.88;99426.09;4898992;29;19919;-76
2021/04/04 09:08:30;;;;;;;;;;;;;;;21.23;24.38;99416.63;4898649;29;20384;-76
2021/04/04 09:10:55;;;;;;;;;;;;;;;20.42;24.91;99425.88;4898716;29;20487;-76
2021/04/04 09:13:21;;;;;;;;;;;;;;;22.16;23.10;99407.34;4898364;29;19998;-75
2021/04/04 09:15:49;;;;;;;;;;;;;;;21.28;24.09;99411.97;4923016;29;19911;-75
2021/04/04 09:18:16;;;;;;;;;;;;;;;23.30;21.73;99402.50;4933696;29;19922;-75
2021/04/04 09:20:44;;;;;;;;;;;;;;;22.64;22.42;99406.38;4936391;29;19910;-75
2021/04/04 09:23:10;;;;;;;;;;;;;;;22.30;22.85;99408.28;4935663;29;19946;-76
2021/04/04 09:25:37;;;;;;;;;;;;;;;22.58;22.54;99401.44;4935091;29;20001;-75
2021/04/04 09:28:06;;;;;;;;;;;;;;;22.66;22.17;99393.91;4936200;29;19911;-75
2021/04/04 09:30:35;;;;;;;;;;;;;;;22.26;23.14;99395.34;4936075;29;20443;-75
2021/04/04 09:33:03;;;;;;;;;;;;;;;23.16;21.84;99382.22;4936329;29;19915;-75
2021/04/04 09:35:29;;;;;;;;;;;;;;;20.82;24.42;99397.63;4936403;29;20037;-75
2021/04/04 09:37:59;;;;;;;;;;;;;;;21.48;23.89;99396.94;4936272;29;20400;-75
2021/04/04 09:40:25;;;;;;;;;;;;;;;22.62;22.60;99389.75;4935982;29;19914;-75
2021/04/04 09:42:50;;;;;;;;;;;;;;;21.95;23.82;99386.47;4935809;29;19910;-75
2021/04/04 09:45:23;;;;;;;;;;;;;;;24.41;21.04;99383.28;4930772;29;20013;-74
2021/04/04 09:47:50;;;;;;;;;;;;;;;24.01;20.43;99369.94;4930091;29;19917;-76
2021/04/04 09:50:17;;;;;;;;;;;;;;;22.11;22.50;99386.50;4935805;29;19915;-76
2021/04/04 09:52:42;;;;;;;;;;;;;;;17.16;28.81;99405.13;4935782;29;19917;-75
2021/04/04 09:55:14;;;;;;;;;;;;;;;17.64;28.44;99396.41;4935699;29;19910;-75
2021/04/04 09:57:39;;;;;;;;;;;;;;;14.43;32.68;99400.81;4934471;29;20349;-75
2021/04/04 10:00:25;;;;;;;;;;;;;;;20.01;25.24;99372.56;4935523;29;19914;-75
2021/04/04 10:02:51;;;;;;;;;;;;;;;19.74;25.07;99372.94;4935344;29;19961;-75
2021/04/04 10:05:30;;;;;;;;;;;;;;;16.28;29.41;99392.31;4933492;29;19950;-74
2021/04/04 10:08:06;;;;;;;;;;;;;;;19.22;26.50;99369.97;4921599;29;19939;-74
2021/04/04 10:10:31;;;;;;;;;;;;;;;17.83;27.76;99374.78;4916434;29;19915;-75
2021/04/04 10:12:58;;;;;;;;;;;;;;;17.54;26.91;99374.06;4916256;29;20006;-74
2021/04/04 10:15:24;;;;;;;;;;;;;;;15.65;29.56;99386.38;4924076;29;20411;-74
2021/04/04 10:17:53;;;;;;;;;;;;;;;15.70;30.99;99375.78;4929425;29;19949;-76
2021/04/04 10:20:28;;;;;;;;;;;;;;;14.96;30.47;99385.63;4935295;29;19917;-75
2021/04/04 10:22:53;;;;;;;;;;;;;;;13.51;32.94;99386.34;4935181;29;19911;-75
2021/04/04 10:25:19;;;;;;;;;;;;;;;14.10;31.86;99371.16;4935271;29;19934;-75
2021/04/04 10:27:44;;;;;;;;;;;;;;;14.61;31.35;99368.25;4935391;29;20376;-70
2021/04/04 10:30:17;;;;;;;;;;;;;;;18.09;26.66;99351.06;4919431;29;19937;-76
2021/04/04 10:32:43;;;;;;;;;;;;;;;20.17;23.57;99344.63;4909186;29;19921;-76
2021/04/04 10:35:10;;;;;;;;;;;;;;;21.86;21.87;99346.53;4915459;29;19934;-76
2021/04/04 10:37:35;;;;;;;;;;;;;;;21.13;21.00;99348.63;4916187;29;19915;-76
2021/04/04 10:40:05;;;;;;;;;;;;;;;24.42;18.87;99337.28;4916326;29;19918;-75
2021/04/04 10:42:30;;;;;;;;;;;;;;;21.96;20.18;99339.81;4916057;29;19911;-76
2021/04/04 10:45:12;;;;;;;;;;;;;;;23.76;19.67;99331.78;4921943;29;20319;-76
2021/04/04 10:47:38;;;;;;;;;;;;;;;24.92;18.63;99325.94;4920116;29;20057;-76
2021/04/04 10:50:04;;;;;;;;;;;;;;;23.44;19.65;99330.25;4935034;29;20009;-74
2021/04/04 10:52:30;;;;;;;;;;;;;;;24.04;19.42;99332.69;4935065;29;20299;-75
2021/04/04 10:54:56;;;;;;;;;;;;;;;19.11;24.93;99348.59;4934918;29;19911;-75
2021/04/04 10:57:21;;;;;;;;;;;;;;;16.76;26.57;99352.41;4917723;29;20403;-75
2021/04/04 10:59:47;;;;;;;;;;;;;;;22.62;21.27;99323.69;4915899;29;19939;-75
2021/04/04 11:02:13;;;;;;;;;;;;;;;20.51;23.38;99332.47;4915837;29;19942;-75
2021/04/04 11:04:38;;;;;;;;;;;;;;;24.21;19.25;99318.31;4914513;29;19914;-76
2021/04/04 11:07:04;;;;;;;;;;;;;;;23.32;19.57;99322.16;4916052;29;20392;-75
2021/04/04 11:09:29;;;;;;;;;;;;;;;20.60;21.46;99329.38;4915821;29;20423;-75
2021/04/04 11:11:55;;;;;;;;;;;;;;;18.96;24.07;99328.25;4915982;29;19911;-75
2021/04/04 11:14:22;;;;;;;;;;;;;;;16.99;26.50;99339.41;4917030;29;19967;-75
2021/04/04 11:16:48;;;;;;;;;;;;;;;15.94;28.36;99330.63;4926814;29;19911;-75
2021/04/04 11:19:14;;;;;;;;;;;;;;;13.86;30.81;99341.31;4918645;29;19983;-74
2021/04/04 11:21:41;;;;;;;;;;;;;;;13.48;32.06;99337.78;4915569;29;20506;-75
2021/04/04 11:24:11;;;;;;;;;;;;;;;13.27;32.49;99340.81;4915698;29;19915;-75
2021/04/04 11:26:37;;;;;;;;;;;;;;;13.52;32.77;99330.75;4907947;29;20365;-75
2021/04/04 11:29:07;;;;;;;;;;;;;;;15.16;30.31;99320.69;4914503;29;19918;-75
2021/04/04 11:31:32;;;;;;;;;;;;;;;18.74;24.72;99308.16;4915230;29;20444;-75
2021/04/04 11:34:16;;;;;;;;;;;;;;;21.42;21.75;99300.53;4914433;29;20014;-75
2021/04/04 11:36:41;;;;;;;;;;;;;;;22.16;20.32;99297.34;4915790;29;20009;-75
2021/04/04 11:39:06;;;;;;;;;;;;;;;21.96;20.67;99297.59;4915746;29;20001;-75
2021/04/04 11:41:32;;;;;;;;;;;;;;;22.32;19.75;99290.22;4914227;29;19915;-72
2021/04/04 11:44:17;;;;;;;;;;;;;;;23.82;18.30;99281.09;4915565;29;19918;-72
2021/04/04 11:46:51;;;;;;;;;;;;;;;21.85;20.68;99290.25;4917803;29;19923;-73
2021/04/04 11:49:35;;;;;;;;;;;;;;;22.57;20.22;99291.44;4919080;29;20364;-74
2021/04/04 11:52:00;;;;;;;;;;;;;;;23.21;19.58;99278.78;4918687;29;19911;-74
2021/04/04 11:54:50;;;;;;;;;;;;;;;22.30;19.98;99276.28;4918889;29;19966;-74
2021/04/04 11:57:18;;;;;;;;;;;;;;;20.20;21.64;99276.03;4919178;29;20269;-72
2021/04/04 11:59:43;;;;;;;;;;;;;;;21.09;21.43;99258.34;4917625;29;19921;-74
2021/04/04 12:02:13;;;;;;;;;;;;;;;22.33;19.68;99248.81;4918608;29;20002;-71
2021/04/04 12:07:12;;;;;;;;;;;;;;;22.75;19.38;99248.06;4918718;29;19958;-73
2021/04/04 12:09:38;;;;;;;;;;;;;;;22.16;20.46;99246.34;4918762;29;19915;-73
2021/04/04 12:12:04;;;;;;;;;;;;;;;19.72;22.73;99253.81;4918404;29;19950;-73
2021/04/04 12:14:29;;;;;;;;;;;;;;;18.10;25.18;99257.47;4920667;29;20009;-73
2021/04/04 12:16:54;;;;;;;;;;;;;;;17.40;25.72;99258.44;4929548;29;19993;-73
2021/04/04 12:19:28;;;;;;;;;;;;;;;17.03;27.03;99252.00;4919231;29;19919;-73
2021/04/04 12:21:54;;;;;;;;;;;;;;;15.83;29.37;99254.31;4918225;29;19981;-71
2021/04/04 12:24:19;;;;;;;;;;;;;;;15.59;29.19;99246.31;4918194;29;20369;-71
2021/04/04 12:26:44;;;;;;;;;;;;;;;15.47;28.96;99246.66;4917096;29;20258;-71
2021/04/04 12:29:10;;;;;;;;;;;;;;;14.82;30.22;99242.47;4917107;29;19911;-71
2021/04/04 12:31:41;;;;;;;;;;;;;;;14.54;31.20;99252.78;4918122;29;19940;-72
2021/04/04 12:34:07;;;;;;;;;;;;;;;15.01;29.96;99242.81;4918227;29;19918;-71
2021/04/04 12:36:43;;;;;;;;;;;;;;;15.26;30.49;99232.50;4918273;29;20001;-71
2021/04/04 12:39:08;;;;;;;;;;;;;;;15.84;28.38;99238.59;4916987;29;20296;-72
2021/04/04 12:41:33;;;;;;;;;;;;;;;15.54;29.06;99232.53;4917997;29;19911;-72
2021/04/04 12:43:59;;;;;;;;;;;;;;;15.24;28.78;99223.03;4918005;29;19938;-73
2021/04/04 12:46:29;;;;;;;;;;;;;;;15.17;29.42;99217.13;4927448;29;19911;-73
2021/04/04 12:48:54;;;;;;;;;;;;;;;14.82;29.02;99212.94;4937078;29;20046;-73
2021/04/04 12:51:20;;;;;;;;;;;;;;;15.04;30.31;99221.84;4936646;29;20030;-72
2021/04/04 12:53:46;;;;;;;;;;;;;;;15.43;28.48;99208.53;4935625;29;19964;-72
2021/04/04 12:56:12;;;;;;;;;;;;;;;15.27;29.46;99202.88;4936865;29;19911;-72
2021/04/04 12:58:37;;;;;;;;;;;;;;;15.24;28.43;99209.97;4935897;29;20372;-78
2021/04/04 13:01:03;;;;;;;;;;;;;;;15.54;29.09;99206.41;4935315;29;19915;-71
2021/04/04 13:03:35;;;;;;;;;;;;;;;15.42;28.51;99206.78;4918158;29;19939;-72
2021/04/04 13:06:01;;;;;;;;;;;;;;;14.89;28.72;99201.41;4916480;29;19910;-72
2021/04/04 13:08:28;;;;;;;;;;;;;;;14.24;30.72;99206.66;4916385;29;19933;-72
2021/04/04 13:10:53;;;;;;;;;;;;;;;13.75;31.79;99210.47;4916459;29;19919;-72
2021/04/04 13:13:25;;;;;;;;;;;;;;;14.35;32.49;99199.38;4929952;23;19899;-70
2021/04/04 13:15:51;;;;;;;;;;;;;;;13.22;32.72;99207.34;4904872;29;19932;-71
2021/04/04 13:18:32;;;;;;;;;;;;;;;13.94;31.25;99192.66;4913912;29;19911;-71
2021/04/04 13:21:02;;;;;;;;;;;;;;;14.25;30.87;99183.13;4917280;29;19958;-71
2021/04/04 13:23:33;;;;;;;;;;;;;;;13.83;32.15;99179.91;4917174;29;19911;-71
2021/04/04 13:25:58;;;;;;;;;;;;;;;14.74;31.51;99176.59;4916214;29;19917;-71
2021/04/04 13:28:28;;;;;;;;;;;;;;;15.28;30.90;99170.69;4917260;29;20365;-71
2021/04/04 13:31:08;;;;;;;;;;;;;;;15.83;29.86;99168.94;4917260;29;19919;-71
2021/04/04 13:33:33;;;;;;;;;;;;;;;15.56;29.02;99170.66;4916923;29;19911;-71
2021/04/04 13:36:08;;;;;;;;;;;;;;;15.13;29.61;99169.38;4917190;29;19967;-70
2021/04/04 13:38:33;;;;;;;;;;;;;;;15.14;29.95;99171.09;4906051;29;19940;-70
2021/04/04 13:40:58;;;;;;;;;;;;;;;14.54;31.60;99158.91;4898146;29;19915;-71
2021/04/04 13:43:23;;;;;;;;;;;;;;;14.98;30.34;99159.38;4897780;29;20288;-70
2021/04/04 13:45:49;;;;;;;;;;;;;;;14.60;30.35;99158.75;4910719;29;19911;-72
2021/04/04 13:48:16;;;;;;;;;;;;;;;14.71;30.72;99161.06;4908460;29;19916;-70
2021/04/04 13:50:46;;;;;;;;;;;;;;;14.72;30.91;99143.66;4897878;29;20301;-70
2021/04/04 13:53:15;;;;;;;;;;;;;;;14.74;30.21;99142.69;4897351;29;19923;-69
2021/04/04 13:55:40;;;;;;;;;;;;;;;14.65;30.33;99135.16;4897891;29;19911;-69
2021/04/04 13:58:05;;;;;;;;;;;;;;;14.93;29.95;99132.56;4897901;29;19962;-69
2021/04/04 14:00:41;;;;;;;;;;;;;;;15.16;30.32;99137.97;4897969;29;20031;-69
2021/04/04 14:03:07;;;;;;;;;;;;;;;14.78;30.31;99125.22;4897542;29;19918;-69
2021/04/04 14:05:34;;;;;;;;;;;;;;;14.84;31.21;99130.25;4897814;29;19911;-69
2021/04/04 14:08:05;;;;;;;;;;;;;;;14.87;30.17;99123.19;4897849;29;19918;-69
2021/04/04 14:10:31;;;;;;;;;;;;;;;14.88;29.78;99116.22;4897693;29;20055;-70
2021/04/04 14:12:56;;;;;;;;;;;;;;;14.60;30.01;99114.44;4897424;29;19959;-69
2021/04/04 14:15:22;;;;;;;;;;;;;;;14.23;31.95;99116.31;4905195;29;19922;-69
2021/04/04 14:17:47;;;;;;;;;;;;;;;14.73;30.63;99101.00;4910030;29;19989;-69
2021/04/04 14:20:12;;;;;;;;;;;;;;;14.65;30.31;99109.94;4916495;29;19911;-69
2021/04/04 14:22:37;;;;;;;;;;;;;;;14.58;31.21;99103.16;4916147;29;19915;-70
2021/04/04 14:25:03;;;;;;;;;;;;;;;14.71;30.78;99100.22;4916412;29;19998;-70
2021/04/04 14:27:29;;;;;;;;;;;;;;;14.60;30.67;99101.38;4916292;29;20303;-70
2021/04/04 14:29:54;;;;;;;;;;;;;;;14.81;30.28;99088.59;4916353;29;19915;-69
2021/04/04 14:32:19;;;;;;;;;;;;;;;14.70;31.39;99090.66;4914977;29;19918;-69
2021/04/04 14:34:44;;;;;;;;;;;;;;;14.59;30.04;99084.00;4916167;29;19911;-69
2021/04/04 14:37:09;;;;;;;;;;;;;;;13.87;31.53;99087.72;4916315;29;20336;-69
2021/04/04 14:39:35;;;;;;;;;;;;;;;14.24;31.07;99086.75;4916206;29;20395;-69
2021/04/04 14:42:00;;;;;;;;;;;;;;;13.61;31.64;99081.47;4916137;29;19996;-69
2021/04/04 14:44:27;;;;;;;;;;;;;;;14.09;31.44;99070.63;4909477;29;19912;-69
2021/04/04 14:46:52;;;;;;;;;;;;;;;14.01;31.62;99077.81;4908182;29;19911;-70
2021/04/04 14:49:17;;;;;;;;;;;;;;;14.18;29.85;99073.91;4915983;29;19934;-69
2021/04/04 14:51:43;;;;;;;;;;;;;;;14.09;30.03;99061.97;4915974;29;19911;-70
2021/04/04 14:54:08;;;;;;;;;;;;;;;13.91;31.67;99070.28;4916018;29;19966;-69
2021/04/04 14:56:35;;;;;;;;;;;;;;;13.77;31.68;99061.06;4916271;29;19959;-69
2021/04/04 14:59:01;;;;;;;;;;;;;;;13.53;32.41;99057.34;4916049;29;19915;-69
2021/04/04 15:01:26;;;;;;;;;;;;;;;14.20;31.01;99054.69;4915954;29;20009;-70
2021/04/04 15:03:51;;;;;;;;;;;;;;;14.06;30.86;99049.88;4914567;29;20291;-70
2021/04/04 15:06:16;;;;;;;;;;;;;;;13.90;30.53;99051.19;4915996;29;19992;-69
2021/04/04 15:08:41;;;;;;;;;;;;;;;14.03;30.61;99052.56;4915970;29;20001;-69
2021/04/04 15:11:07;;;;;;;;;;;;;;;12.96;31.73;99054.38;4916097;29;20019;-69
2021/04/04 15:13:32;;;;;;;;;;;;;;;12.78;31.72;99058.28;4915602;29;19947;-69
2021/04/04 15:15:57;;;;;;;;;;;;;;;13.78;31.93;99046.31;4905562;29;19951;-69
2021/04/04 15:18:23;;;;;;;;;;;;;;;14.26;30.44;99040.63;4914067;29;20294;-69
2021/04/04 15:20:49;;;;;;;;;;;;;;;14.36;30.37;99039.50;4917258;29;19919;-69
2021/04/04 15:23:15;;;;;;;;;;;;;;;14.45;29.94;99034.00;4919325;29;19938;-69
2021/04/04 15:25:40;;;;;;;;;;;;;;;14.41;29.60;99032.41;4919549;29;19922;-69
2021/04/04 15:28:06;;;;;;;;;;;;;;;14.48;30.35;99033.94;4919453;29;19911;-69
2021/04/04 15:30:33;;;;;;;;;;;;;;;14.69;30.20;99036.78;4919340;29;19915;-69
2021/04/04 15:33:00;;;;;;;;;;;;;;;14.49;29.36;99034.78;4918052;29;19910;-69
2021/04/04 15:35:25;;;;;;;;;;;;;;;14.30;30.35;99029.22;4919145;29;20276;-69
2021/04/04 15:37:51;;;;;;;;;;;;;;;14.15;30.08;99023.56;4919339;29;19915;-69
2021/04/04 15:40:17;;;;;;;;;;;;;;;13.95;30.43;99028.47;4919310;29;20368;-69
2021/04/04 15:42:42;;;;;;;;;;;;;;;13.76;30.17;99022.06;4919113;29;20385;-69
2021/04/04 15:45:10;;;;;;;;;;;;;;;13.98;30.21;99019.75;4914709;29;19937;-69
2021/04/04 15:47:35;;;;;;;;;;;;;;;14.08;29.63;99019.44;4911087;29;19911;-69
2021/04/04 15:50:00;;;;;;;;;;;;;;;13.64;30.13;99015.44;4918913;29;19993;-69
2021/04/04 15:52:26;;;;;;;;;;;;;;;14.00;31.04;99013.56;4919023;29;20420;-69
2021/04/04 15:54:51;;;;;;;;;;;;;;;13.77;30.33;99022.00;4913534;29;20356;-71
2021/04/04 15:57:16;;;;;;;;;;;;;;;13.31;30.25;99020.63;4899949;29;19911;-70
2021/04/04 15:59:41;;;;;;;;;;;;;;;12.84;30.37;99029.53;4899954;29;19911;-70
2021/04/04 16:02:07;;;;;;;;;;;;;;;12.60;31.23;99021.41;4899563;29;19927;-69
2021/04/04 16:04:32;;;;;;;;;;;;;;;12.60;31.51;99013.59;4899506;29;20466;-69
2021/04/04 16:06:57;;;;;;;;;;;;;;;13.20;31.07;99006.13;4900060;29;19912;-70
2021/04/04 16:09:23;;;;;;;;;;;;;;;13.32;31.81;99001.50;4899807;29;19911;-70
2021/04/04 16:11:48;;;;;;;;;;;;;;;13.59;30.67;98999.94;4899829;29;19916;-70
2021/04/04 16:14:14;;;;;;;;;;;;;;;13.80;30.57;98997.66;4899948;29;19919;-70
2021/04/04 16:16:39;;;;;;;;;;;;;;;13.79;30.93;98990.75;4910681;29;19918;-70
2021/04/04 16:19:05;;;;;;;;;;;;;;;13.69;31.03;98991.88;4918332;29;19911;-72
2021/04/04 16:21:30;;;;;;;;;;;;;;;13.76;30.71;98993.41;4918359;29;20359;-74
2021/04/04 16:23:57;;;;;;;;;;;;;;;13.76;30.30;98990.81;4912407;29;19911;-75
2021/04/04 16:26:22;;;;;;;;;;;;;;;12.88;32.25;98984.38;4898149;29;19911;-70
2021/04/04 16:28:47;;;;;;;;;;;;;;;13.57;31.74;98983.50;4899446;29;19934;-70
2021/04/04 16:31:13;;;;;;;;;;;;;;;13.63;31.51;98979.88;4898917;29;19916;-70
2021/04/04 16:33:38;;;;;;;;;;;;;;;13.47;31.98;98984.63;4898570;29;19919;-73
2021/04/04 16:36:04;;;;;;;;;;;;;;;13.47;31.76;98982.03;4899309;29;20425;-73
2021/04/04 16:38:29;;;;;;;;;;;;;;;13.41;31.49;98974.38;4899343;29;19959;-68
2021/04/04 16:40:54;;;;;;;;;;;;;;;13.26;31.45;98974.78;4899216;29;19911;-71
2021/04/04 16:43:20;;;;;;;;;;;;;;;13.11;32.95;98965.59;4896375;29;19919;-71
2021/04/04 16:45:46;;;;;;;;;;;;;;;13.30;32.73;98966.03;4897493;29;19912;-69
2021/04/04 16:48:11;;;;;;;;;;;;;;;13.45;32.73;98970.81;4901293;29;19971;-69
2021/04/04 16:50:37;;;;;;;;;;;;;;;13.25;32.99;98966.13;4909796;29;19915;-69
2021/04/04 16:53:02;;;;;;;;;;;;;;;12.95;33.78;98966.84;4903289;29;20369;-69
2021/04/04 16:55:27;;;;;;;;;;;;;;;12.88;33.46;98963.56;4914263;29;19918;-69
2021/04/04 16:57:53;;;;;;;;;;;;;;;12.57;34.19;98963.41;4904313;29;19915;-68
2021/04/04 17:00:19;;;;;;;;;;;;;;;12.31;34.16;98964.00;4908959;29;19932;-69
2021/04/04 17:02:44;;;;;;;;;;;;;;;12.24;34.23;98960.72;4911254;29;19911;-69
2021/04/04 17:05:10;;;;;;;;;;;;;;;12.49;34.74;98965.34;4902168;29;19951;-69
2021/04/04 17:07:36;;;;;;;;;;;;;;;12.17;35.65;98959.13;4914169;29;20016;-69
2021/04/04 17:10:02;;;;;;;;;;;;;;;12.00;35.48;98962.06;4904897;29;19981;-69
2021/04/04 17:12:27;;;;;;;;;;;;;;;11.77;35.58;98959.06;4907506;29;19911;-68
2021/04/04 17:14:53;;;;;;;;;;;;;;;11.57;35.72;98952.50;4899079;29;20300;-69
2021/04/04 17:17:18;;;;;;;;;;;;;;;11.43;37.44;98949.31;4904551;29;20407;-68
2021/04/04 17:19:43;;;;;;;;;;;;;;;11.50;36.28;98945.72;4913325;29;20359;-68
2021/04/04 17:22:08;;;;;;;;;;;;;;;11.32;37.73;98943.50;4905506;29;19934;-68
2021/04/04 17:24:33;;;;;;;;;;;;;;;11.34;38.15;98939.13;4906630;29;20281;-68
2021/04/04 17:26:59;;;;;;;;;;;;;;;11.33;37.83;98948.66;4912158;29;20353;-68
2021/04/04 17:29:24;;;;;;;;;;;;;;;11.23;38.19;98941.06;4901314;29;19911;-68
2021/04/04 17:31:50;;;;;;;;;;;;;;;11.02;38.12;98947.47;4912046;29;19911;-68
2021/04/04 17:34:15;;;;;;;;;;;;;;;10.90;39.13;98945.94;4906351;29;19911;-67
2021/04/04 17:36:40;;;;;;;;;;;;;;;10.85;39.51;98946.91;4905640;29;20511;-68
2021/04/04 17:39:06;;;;;;;;;;;;;;;10.55;40.48;98947.34;4912864;29;19994;-67
2021/04/04 17:41:31;;;;;;;;;;;;;;;10.68;40.59;98941.97;4914284;29;19921;-67
2021/04/04 17:43:56;;;;;;;;;;;;;;;10.41;41.36;98949.31;4900914;29;19911;-68
2021/04/04 17:46:21;;;;;;;;;;;;;;;10.24;41.81;98951.25;4899660;29;19919;-68
2021/04/04 17:48:47;;;;;;;;;;;;;;;10.15;42.21;98951.34;4916397;29;20297;-68
2021/04/04 17:51:12;;;;;;;;;;;;;;;9.98;43.03;98954.19;4901019;29;19922;-68
2021/04/04 17:53:37;;;;;;;;;;;;;;;9.77;43.59;98947.53;4913226;29;20281;-68
2021/04/04 17:56:03;;;;;;;;;;;;;;;9.66;43.87;98941.63;4904152;29;19911;-68
2021/04/04 17:58:28;;;;;;;;;;;;;;;9.52;44.61;98940.06;4906779;29;19974;-68
2021/04/04 18:00:53;;;;;;;;;;;;;;;9.34;45.14;98940.25;4904928;29;19918;-68
2021/04/04 18:03:23;;;;;;;;;;;;;;;9.21;45.81;98949.00;4908009;29;19918;-68
2021/04/04 18:05:52;;;;;;;;;;;;;;;9.15;45.91;98949.06;4911759;29;19911;-68
2021/04/04 18:11:03;;;;;;;;;;;;;;;8.71;48.07;98950.31;4902156;29;19997;-68
2021/04/04 18:13:36;;;;;;;;;;;;;;;8.65;48.36;98958.09;4912741;29;19911;-68
2021/04/04 18:16:02;;;;;;;;;;;;;;;8.64;48.15;98948.63;4911433;29;19911;-68
2021/04/04 18:18:27;;;;;;;;;;;;;;;8.43;49.05;98952.22;4908346;29;19918;-68
2021/04/04 18:20:54;;;;;;;;;;;;;;;8.36;49.41;98956.56;4903288;29;19951;-68
2021/04/04 18:23:19;;;;;;;;;;;;;;;8.45;49.71;98956.50;4912739;29;19911;-68
2021/04/04 18:25:44;;;;;;;;;;;;;;;8.19;50.58;98953.19;4897400;29;19940;-68
2021/04/04 18:28:10;;;;;;;;;;;;;;;8.05;51.06;98949.84;4902217;29;19994;-68
2021/04/04 18:30:36;;;;;;;;;;;;;;;8.01;51.26;98955.88;4905836;29;19915;-68
2021/04/04 18:33:03;;;;;;;;;;;;;;;8.02;51.71;98949.84;4911381;29;20308;-68
2021/04/04 18:35:28;;;;;;;;;;;;;;;7.89;52.05;98960.22;4899199;29;20292;-68
2021/04/04 18:37:53;;;;;;;;;;;;;;;7.75;52.67;98956.00;4912715;29;19990;-68
2021/04/04 18:40:19;;;;;;;;;;;;;;;7.64;53.51;98958.59;4916152;29;19911;-68
2021/04/04 18:42:44;;;;;;;;;;;;;;;7.65;53.55;98962.91;4903834;29;19997;-68
2021/04/04 18:45:10;;;;;;;;;;;;;;;7.60;53.64;98962.06;4894725;29;20007;-68
2021/04/04 18:47:35;;;;;;;;;;;;;;;7.54;53.28;98962.06;4907726;29;20391;-68
2021/04/04 18:50:00;;;;;;;;;;;;;;;7.45;53.35;98958.66;4909630;29;19926;-68
2021/04/04 18:52:26;;;;;;;;;;;;;;;7.37;53.08;98960.41;4906524;29;19914;-68
2021/04/04 18:54:51;;;;;;;;;;;;;;;7.35;53.25;98954.41;4902974;29;19911;-68
2021/04/04 18:57:16;;;;;;;;;;;;;;;7.37;53.21;98955.25;4916386;29;19997;-68
2021/04/04 18:59:41;;;;;;;;;;;;;;;7.34;53.75;98960.38;4899624;29;20010;-68
2021/04/04 19:02:07;;;;;;;;;;;;;;;7.25;54.23;98950.09;4900945;29;19995;-69
2021/04/04 19:04:33;;;;;;;;;;;;;;;7.25;54.38;98954.41;4900895;29;19963;-69
2021/04/04 19:06:58;;;;;;;;;;;;;;;7.13;54.82;98961.28;4901085;29;20282;-69
2021/04/04 19:09:23;;;;;;;;;;;;;;;7.16;54.29;98969.03;4900816;29;19917;-70
2021/04/04 19:11:49;;;;;;;;;;;;;;;7.09;54.38;98963.88;4900751;29;19983;-68
2021/04/04 19:14:14;;;;;;;;;;;;;;;7.11;54.03;98970.75;4940686;23;20430;-73
2021/04/04 19:16:39;;;;;;;;;;;;;;;7.00;54.86;98959.59;4977041;28;20268;-75
2021/04/04 19:19:04;;;;;;;;;;;;;;;6.99;55.80;98957.03;4969972;28;19916;-73
2021/04/04 19:21:30;;;;;;;;;;;;;;;6.88;54.82;98965.63;4975962;28;19910;-75
2021/04/04 19:23:55;;;;;;;;;;;;;;;6.78;55.17;98953.59;4973357;28;20006;-75
2021/04/04 19:26:21;;;;;;;;;;;;;;;6.74;55.73;98951.03;4956275;28;19958;-73
2021/04/04 19:28:46;;;;;;;;;;;;;;;6.61;55.92;98960.44;4946456;29;19921;-73
2021/04/04 19:31:11;;;;;;;;;;;;;;;6.51;56.76;98958.72;4938184;29;19919;-74
2021/04/04 19:33:37;;;;;;;;;;;;;;;6.42;57.05;98950.13;4938274;29;19910;-72
2021/04/04 19:36:02;;;;;;;;;;;;;;;6.30;57.49;98955.25;4938354;29;20390;-75
2021/04/04 19:38:27;;;;;;;;;;;;;;;6.22;57.75;98951.81;4938237;29;20284;-74
2021/04/04 19:40:53;;;;;;;;;;;;;;;6.24;57.45;98944.97;4938196;28;19910;-74
2021/04/04 19:43:18;;;;;;;;;;;;;;;6.14;57.83;98948.34;4937989;29;19911;-74
2021/04/04 19:45:43;;;;;;;;;;;;;;;6.06;58.13;98944.91;4945939;29;20018;-74
2021/04/04 19:48:09;;;;;;;;;;;;;;;6.07;57.85;98946.63;4953663;29;20382;-74